Time;durP1;ratioP1;P1;durP2;ratioP2;P2;SDS_P1;SDS_P2;PMS_P1;PMS_P2;Temp;Humidity;BMP_temperature;BMP_pressure;BME280_temperature;BME280_humidity;BME280_pressure;Samples;Min_cycle;Max_cycle;Signal;HPM_P1;HPM_P2
2023/05/24 00:02:09;;;;;;;23.50;6.97;;;;;;;;;;5052858;28;20881;-93
2023/05/24 00:04:54;;;;;;;30.92;6.47;;;;;;;;;;5052414;28;20101;-93
2023/05/24 00:07:46;;;;;;;30.65;6.05;;;;;;;;;;5037811;28;20460;-92
2023/05/24 00:10:39;;;;;;;24.10;5.72;;;;;;;;;;5037628;28;20035;-93
2023/05/24 00:13:30;;;;;;;26.67;6.45;;;;;;;;;;5037697;28;20112;-93
2023/05/24 00:16:15;;;;;;;24.90;5.60;;;;;;;;;;5051671;28;20035;-91
2023/05/24 00:19:01;;;;;;;23.02;6.35;;;;;;;;;;5034008;28;20507;-92
2023/05/24 00:21:46;;;;;;;26.42;5.10;;;;;;;;;;5040059;28;20044;-93
2023/05/24 00:24:38;;;;;;;27.30;5.97;;;;;;;;;;5052303;28;20056;-93
2023/05/24 00:27:23;;;;;;;29.48;6.13;;;;;;;;;;5037304;28;20119;-93
2023/05/24 00:30:08;;;;;;;23.25;6.65;;;;;;;;;;5051809;28;20055;-93
2023/05/24 00:32:52;;;;;;;25.98;6.32;;;;;;;;;;5040475;28;20075;-92
2023/05/24 00:35:37;;;;;;;33.53;6.10;;;;;;;;;;5052229;28;20047;-92
2023/05/24 00:38:24;;;;;;;31.73;7.72;;;;;;;;;;5036825;28;20596;-91
2023/05/24 00:41:10;;;;;;;22.17;5.57;;;;;;;;;;5036260;28;20086;-92
2023/05/24 00:43:55;;;;;;;27.67;6.30;;;;;;;;;;5051646;28;20071;-93
2023/05/24 00:46:40;;;;;;;21.42;7.07;;;;;;;;;;5037026;28;20051;-92
2023/05/24 00:49:27;;;;;;;26.80;6.07;;;;;;;;;;5066123;28;20454;-93
2023/05/24 00:52:15;;;;;;;28.75;8.07;;;;;;;;;;5036947;28;20068;-93
2023/05/24 00:55:00;;;;;;;26.15;6.07;;;;;;;;;;5037035;28;20043;-91
2023/05/24 00:57:47;;;;;;;22.20;7.30;;;;;;;;;;5037194;28;20044;-93
2023/05/24 01:00:32;;;;;;;33.10;7.53;;;;;;;;;;5038041;28;20070;-93
2023/05/24 01:03:18;;;;;;;23.33;6.15;;;;;;;;;;5037191;28;20043;-93
2023/05/24 01:06:05;;;;;;;25.77;6.50;;;;;;;;;;5051768;28;20393;-92
2023/05/24 01:09:13;;;;;;;26.40;7.10;;;;;;;;;;5037595;28;20044;-93
2023/05/24 01:12:04;;;;;;;27.80;5.93;;;;;;;;;;5052240;28;20044;-93
2023/05/24 01:14:58;;;;;;;31.08;7.10;;;;;;;;;;5041546;28;20033;-94
2023/05/24 01:17:50;;;;;;;;;;;8.00;99.90;;;;;;5040356;28;20080;-94
2023/05/24 01:20:37;;;;;;;18.50;6.93;;;;;;;;;;5058300;28;20329;-93
2023/05/24 01:23:28;;;;;;;21.13;5.65;;;;;;;;;;5064639;28;20064;-94
2023/05/24 01:26:22;;;;;;;27.45;7.45;;;;;;;;;;5069070;28;20040;-92
2023/05/24 01:29:07;;;;;;;21.50;5.82;;;;;;;;;;5060307;28;20075;-93
2023/05/24 01:31:52;;;;;;;26.08;5.93;;;;;;;;;;5058809;28;20040;-93
2023/05/24 01:34:37;;;;;;;36.72;7.68;;;;;;;;;;5060554;28;20081;-93
2023/05/24 01:37:27;;;;;;;26.30;6.85;;;;;;;;;;5040480;28;20098;-92
2023/05/24 01:40:12;;;;;;;32.38;6.32;;;;;;;;;;5062248;28;20405;-94
2023/05/24 01:43:05;;;;;;;23.55;5.93;;;;;;;;;;5054795;28;20112;-93
2023/05/24 01:45:59;;;;;;;31.92;7.68;;;;;;;;;;5040656;28;20091;-93
2023/05/24 01:48:47;;;;;;;35.15;7.18;;;;;;;;;;5040684;28;20083;-92
2023/05/24 01:51:39;;;;;;;26.20;6.15;;;;;;;;;;5041026;28;20119;-92
2023/05/24 01:54:26;;;;;;;33.65;6.70;;;;;;;;;;5055015;28;20113;-92
2023/05/24 01:57:10;;;;;;;21.38;5.90;;;;;;;;;;5040179;28;20547;-92
2023/05/24 01:59:59;;;;;;;24.77;6.63;;;;;;;;;;5040485;28;20138;-92
2023/05/24 02:02:44;;;;;;;25.15;5.28;;;;;;;;;;5055162;28;20067;-94
2023/05/24 02:05:29;;;;;;;25.58;7.03;;;;;;;;;;5055496;28;20040;-93
2023/05/24 02:08:14;;;;;;;34.50;6.82;;;;;;;;;;5040364;28;20110;-90
2023/05/24 02:10:59;;;;;;;24.80;6.65;;;;;;;;;;5055173;28;20083;-92
2023/05/24 02:13:43;;;;;;;28.92;5.55;;;;;;;;;;5040129;28;20043;-92
2023/05/24 02:16:29;;;;;;;23.40;5.93;;;;;;;;;;5055041;28;20040;-93
2023/05/24 02:19:15;;;;;;;22.30;6.00;;;;;;;;;;5054471;28;20039;-93
2023/05/24 02:22:00;;;;;;;19.92;6.03;;;;;;;;;;5059549;28;20488;-93
2023/05/24 02:24:47;;;;;;;26.80;6.13;;;;;;;;;;5046221;28;20090;-93
2023/05/24 02:27:34;;;;;;;26.88;6.57;;;;;;;;;;5037184;28;20067;-94
2023/05/24 02:30:19;;;;;;;29.52;6.18;;;;;;;;;;5041503;28;20074;-93
2023/05/24 02:33:04;;;;;;;30.45;6.40;;;;;;;;;;5038806;28;20439;-91
2023/05/24 02:35:48;;;;;;;24.80;5.22;;;;;;;;;;5054560;28;20055;-92
2023/05/24 02:38:33;;;;;;;27.98;6.93;;;;;;;;;;5038150;28;20039;-93
2023/05/24 02:41:22;;;;;;;22.92;6.13;;;;;;;;;;5038802;28;20040;-93
2023/05/24 02:44:07;;;;;;;28.75;6.22;;;;;;;;;;5038976;28;20108;-91
2023/05/24 02:46:52;;;;;;;29.73;5.75;;;;;;;;;;5039364;28;20401;-93
2023/05/24 02:49:36;;;;;;;26.30;5.43;;;;;;;;;;5039484;28;20078;-93
2023/05/24 02:52:22;;;;;;;24.65;5.63;;;;;;;;;;5054002;28;20040;-92
2023/05/24 02:55:07;;;;;;;25.52;6.15;;;;;;;;;;5039421;28;20037;-92
2023/05/24 02:57:52;;;;;;;22.10;6.78;;;;;;;;;;5039120;28;20052;-92
2023/05/24 03:00:37;;;;;;;24.02;5.72;;;;;;;;;;5039290;28;20044;-92
2023/05/24 03:03:22;;;;;;;21.85;6.15;;;;;;;;;;5053508;28;20064;-92
2023/05/24 03:06:07;;;;;;;22.15;6.38;;;;;;;;;;5039008;28;20043;-92
2023/05/24 03:08:51;;;;;;;25.50;5.68;;;;;;;;;;5039131;28;20582;-94
2023/05/24 03:11:36;;;;;;;30.08;5.43;;;;;;;;;;5038796;28;20032;-92
2023/05/24 03:14:22;;;;;;;34.17;8.25;;;;;;;;;;5053303;28;20040;-93
2023/05/24 03:17:09;;;;;;;26.75;5.95;;;;;;;;;;5038596;28;20492;-92
2023/05/24 03:19:54;;;;;;;23.20;7.65;;;;;;;;;;5038332;28;20059;-92
2023/05/24 03:22:39;;;;;;;22.02;5.85;;;;;;;;;;5053850;28;20035;-94
2023/05/24 03:25:25;;;;;;;22.67;5.00;;;;;;;;;;5037813;28;20393;-93
2023/05/24 03:28:13;;;;;;;30.67;5.80;;;;;;;;;;5037796;28;20059;-92
2023/05/24 03:31:02;;;;;;;27.80;7.50;;;;;;;;;;5027269;28;20098;-93
2023/05/24 03:33:47;;;;;;;21.08;5.65;;;;;;;;;;5041701;28;20392;-92
2023/05/24 03:36:32;;;;;;;28.90;6.90;;;;;;;;;;5045325;28;20040;-91
2023/05/24 03:39:16;;;;;;;20.15;5.90;;;;;;;;;;5037842;28;20035;-93
2023/05/24 03:42:01;;;;;;;22.40;5.88;;;;;;;;;;5067167;28;20107;-92
2023/05/24 03:44:45;;;;;;;22.00;5.28;;;;;;;;;;5047188;28;20401;-93
2023/05/24 03:47:30;;;;;;;28.25;6.05;;;;;;;;;;5040168;28;20117;-93
2023/05/24 03:50:15;;;;;;;28.80;7.20;;;;;;;;;;5041574;28;20108;-92
2023/05/24 03:53:00;;;;;;;20.75;5.05;;;;;;;;;;5041674;28;20078;-93
2023/05/24 03:55:55;;;;;;;24.35;5.45;;;;;;;;;;5054076;28;20044;-93
2023/05/24 03:58:40;;;;;;;22.30;5.20;;;;;;;;;;5039847;28;20068;-93
2023/05/24 04:01:48;;;;;;;20.40;5.50;;;;;;;;;;5030019;28;20448;-94
2023/05/24 04:04:32;;;;;;;22.15;5.70;;;;;;;;;;5056755;28;20047;-94
2023/05/24 04:07:19;;;;;;;28.90;6.53;;;;;;;;;;5039681;28;20039;-93
2023/05/24 04:10:05;;;;;;;23.92;4.97;;;;;;;;;;5030269;28;20044;-94
2023/05/24 04:12:55;;;;;;;21.10;4.82;;;;;;;;;;5059084;28;20039;-93
2023/05/24 04:15:40;;;;;;;26.35;5.60;;;;;;;;;;5041385;28;20507;-93
2023/05/24 04:18:25;;;;;;;26.25;7.78;;;;;;;;;;5052523;28;20039;-92
2023/05/24 04:21:10;;;;;;;26.73;5.95;;;;;;;;;;5038638;28;20043;-94
2023/05/24 04:23:57;;;;;;;26.30;5.20;;;;;;;;;;5053574;28;20048;-93
2023/05/24 04:26:43;;;;;;;19.27;4.45;;;;;;;;;;5038318;28;20388;-92
2023/05/24 04:29:28;;;;;;;20.45;5.63;;;;;;;;;;5052972;28;20064;-93
2023/05/24 04:32:13;;;;;;;29.02;6.40;;;;;;;;;;5054126;28;20039;-94
2023/05/24 04:34:58;;;;;;;26.45;6.15;;;;;;;;;;5040353;28;20543;-94
2023/05/24 04:37:43;;;;;;;24.73;5.32;;;;;;;;;;5024900;28;20095;-93
2023/05/24 04:40:27;;;;;;;23.13;5.15;;;;;;;;;;5046856;28;20086;-93
2023/05/24 04:43:30;;;;;;;21.58;6.78;;;;;;;;;;5045895;28;20048;-94
2023/05/24 04:49:21;;;;;;;27.83;5.80;;;;;;;;;;5045313;28;20124;-93
2023/05/24 04:52:15;;;;;;;22.73;4.85;;;;;;;;;;5055723;28;20044;-94
2023/05/24 04:55:03;;;;;;;23.67;5.10;;;;;;;;;;5043712;28;20042;-93
2023/05/24 04:57:56;;;;;;;28.88;4.80;;;;;;;;;;5045537;28;20043;-95
2023/05/24 05:00:41;;;;;;;17.75;4.07;;;;;;;;;;5043587;28;20092;-93
2023/05/24 05:03:46;;;;;;;26.30;5.32;;;;;;;;;;5046465;28;20040;-94
2023/05/24 05:06:33;;;;;;;21.40;5.45;;;;;;;;;;5036965;28;20040;-93
2023/05/24 05:09:23;;;;;;;28.05;5.72;;;;;;;;;;5020108;28;20091;-95
2023/05/24 05:12:08;;;;;;;23.40;4.90;;;;;;;;;;5036738;28;20115;-93
2023/05/24 05:14:55;;;;;;;25.33;5.22;;;;;;;;;;5035410;28;20036;-93
2023/05/24 05:17:42;;;;;;;25.17;5.55;;;;;;;;;;5036163;28;20504;-93
2023/05/24 05:20:27;;;;;;;25.35;6.32;;;;;;;;;;5027527;28;20116;-93
2023/05/24 05:23:11;;;;;;;28.50;6.45;;;;;;;;;;5036580;28;20059;-94
2023/05/24 05:25:56;;;;;;;31.48;5.07;;;;;;;;;;5038618;28;20036;-93
2023/05/24 05:28:41;;;;;;;23.63;4.70;;;;;;;;;;5024957;28;20059;-92
2023/05/24 05:31:26;;;;;;;17.13;4.78;;;;;;;;;;5035898;28;20493;-93
2023/05/24 05:34:10;;;;;;;23.10;6.93;;;;;;;;;;5036768;28;20048;-92
2023/05/24 05:36:55;;;;;;;23.60;5.60;;;;;;;;;;5036526;28;20392;-93
2023/05/24 05:39:40;;;;;;;19.27;5.07;;;;;;;;;;5034592;28;20086;-93
2023/05/24 05:42:27;;;;;;;28.23;6.15;;;;;;;;;;5046085;28;20044;-93
2023/05/24 05:45:11;;;;;;;17.52;3.83;;;;;;;;;;5031435;28;20079;-94
2023/05/24 05:47:56;;;;;;;21.00;4.45;;;;;;;;;;5040104;28;20044;-92
2023/05/24 05:50:40;;;;;;;21.40;4.00;;;;;;;;;;5036612;28;20531;-94
2023/05/24 05:53:25;;;;;;;20.70;4.82;;;;;;;;;;5050762;28;20409;-93
2023/05/24 05:56:09;;;;;;;22.80;5.47;;;;;;;;;;5050413;28;20063;-93
2023/05/24 05:58:54;;;;;;;20.35;3.63;;;;;;;;;;5036277;28;20500;-92
2023/05/24 06:01:40;;;;;;;25.73;5.57;;;;;;;;;;5036112;28;20064;-92
2023/05/24 06:04:24;;;;;;;21.75;4.68;;;;;;;;;;5051310;28;20095;-94
2023/05/24 06:07:08;;;;;;;22.10;4.65;;;;;;;;;;5037821;28;20032;-91
2023/05/24 06:09:53;;;;;;;21.48;4.93;;;;;;;;;;5054364;28;20496;-92
2023/05/24 06:12:39;;;;;;;16.02;5.15;;;;;;;;;;5039095;28;20512;-92
2023/05/24 06:15:32;;;;;;;17.30;4.07;;;;;;;;;;5030627;28;20047;-94
2023/05/24 06:18:16;;;;;;;16.13;5.60;;;;;;;;;;5024017;28;20508;-92
2023/05/24 06:21:03;;;;;;;22.58;4.32;;;;;;;;;;5041804;28;20052;-90
2023/05/24 06:23:48;;;;;;;20.58;4.70;;;;;;;;;;5056647;28;20520;-89
2023/05/24 06:26:33;;;;;;;19.27;4.00;;;;;;;;;;5039822;28;20392;-91
2023/05/24 06:29:21;;;;;;;16.75;4.20;;;;;;;;;;5039400;28;20106;-91
2023/05/24 06:32:05;;;;;;;21.08;4.93;;;;;;;;;;5039066;28;20079;-92
2023/05/24 06:34:50;;;;;;;20.75;5.22;;;;;;;;;;5023874;28;20044;-91
2023/05/24 06:37:37;;;;;;;15.70;4.18;;;;;;;;;;5038355;28;20044;-93
2023/05/24 06:40:22;;;;;;;12.85;3.50;;;;;;;;;;5038447;28;20040;-91
2023/05/24 06:43:06;;;;;;;13.68;4.03;;;;;;;;;;5038364;28;20048;-94
2023/05/24 06:45:51;;;;;;;16.50;4.70;;;;;;;;;;5034934;28;20074;-91
2023/05/24 06:48:36;;;;;;;16.45;3.53;;;;;;;;;;5037990;28;20035;-90
2023/05/24 06:51:20;;;;;;;18.08;3.55;;;;;;;;;;5025114;28;20504;-92
2023/05/24 06:54:05;;;;;;;13.93;3.95;;;;;;;;;;5053568;28;20040;-93
2023/05/24 06:56:50;;;;;;;17.17;3.00;;;;;;;;;;5038336;28;20500;-92
2023/05/24 06:59:35;;;;;;;14.07;4.03;;;;;;;;;;5038448;28;20078;-91
2023/05/24 07:02:25;;;;;;;12.93;3.63;;;;;;;;;;5018751;28;20076;-92
2023/05/24 07:05:12;;;;;;;13.30;3.88;;;;;;;;;;5042831;28;20448;-93
2023/05/24 07:07:57;;;;;;;14.55;3.33;;;;;;;;;;5037855;28;20044;-89
2023/05/24 07:10:43;;;;;;;9.65;2.88;;;;;;;;;;5038219;28;20563;-92
2023/05/24 07:13:30;;;;;;;12.23;3.30;;;;;;;;;;5053499;28;20036;-92
2023/05/24 07:16:15;;;;;;;18.98;3.35;;;;;;;;;;5038095;28;20056;-93
2023/05/24 07:19:00;;;;;;;16.17;3.45;;;;;;;;;;5037831;28;20091;-92
2023/05/24 07:21:45;;;;;;;16.05;3.53;;;;;;;;;;5052831;28;20052;-94
2023/05/24 07:24:30;;;;;;;38.28;5.15;;;;;;;;;;5039030;28;20040;-93
2023/05/24 07:27:15;;;;;;;23.85;3.60;;;;;;;;;;5038964;28;20048;-91
2023/05/24 07:29:59;;;;;;;14.23;3.92;;;;;;;;;;5037911;28;20561;-92
2023/05/24 07:32:44;;;;;;;11.38;2.90;;;;;;;;;;5053827;28;20488;-94
2023/05/24 07:35:29;;;;;;;12.30;4.45;;;;;;;;;;5053543;28;20028;-94
2023/05/24 07:38:14;;;;;;;13.57;3.13;;;;;;;;;;5019518;28;20052;-93
2023/05/24 07:41:00;;;;;;;16.63;3.85;;;;;;;;;;5053794;28;20071;-93
2023/05/24 07:43:45;;;;;;;14.25;3.45;;;;;;;;;;5038003;28;20516;-94
2023/05/24 07:46:30;;;;;;;12.43;3.58;;;;;;;;;;5053354;28;20040;-93
2023/05/24 07:49:14;;;;;;;17.33;4.10;;;;;;;;;;5038415;28;20035;-93
2023/05/24 07:52:05;;;;;;;10.88;3.03;;;;;;;;;;5060887;28;20036;-95
2023/05/24 07:54:50;;;;;;;11.77;2.90;;;;;;;;;;5058786;28;20097;-93
2023/05/24 07:57:57;;;;;;;14.55;3.53;;;;;;;;;;5055241;28;20048;-94
2023/05/24 08:03:56;;;;;;;17.55;3.83;;;;;;;;;;5045841;28;20122;-93
2023/05/24 08:06:41;;;;;;;14.23;3.45;;;;;;;;;;5056052;28;20132;-95
2023/05/24 08:09:32;;;;;;;13.07;3.75;;;;;;;;;;5055910;28;20163;-94
2023/05/24 08:12:20;;;;;;;19.10;3.40;;;;;;;;;;5061908;28;20055;-95
2023/05/24 08:15:05;;;;;;;24.05;4.15;;;;;;;;;;5055667;28;20032;-94
2023/05/24 08:17:52;;;;;;;12.30;3.47;;;;;;;;;;5039721;28;20091;-95
2023/05/24 08:20:37;;;;;;;12.35;3.90;;;;;;;;;;5038904;28;20123;-92
2023/05/24 08:23:25;;;;;;;12.82;3.60;;;;;;;;;;5041331;28;20040;-91
2023/05/24 08:26:10;;;;;;;10.82;3.75;;;;;;;;;;5033379;28;20036;-92
2023/05/24 08:28:57;;;;;;;14.02;3.40;;;;;;;;;;5048238;28;20101;-90
2023/05/24 08:31:43;;;;;;;16.63;4.70;;;;;;;;;;5056190;28;20040;-92
2023/05/24 08:34:28;;;;;;;21.17;4.35;;;;;;;;;;5056322;28;20103;-91
2023/05/24 08:37:14;;;;;;;29.63;7.22;;;;;;;;;;5040592;28;20036;-94
2023/05/24 08:40:02;;;;;;;37.55;5.50;;;;;;;;;;5050849;28;20446;-93
2023/05/24 08:42:50;;;;;;;19.55;3.70;;;;;;;;;;5051782;28;20488;-91
2023/05/24 08:45:39;;;;;;;15.18;3.83;;;;;;;;;;5036424;28;20508;-91
2023/05/24 08:48:25;;;;;;;14.15;3.60;;;;;;;;;;5037763;28;20059;-93
2023/05/24 08:51:10;;;;;;;14.57;3.90;;;;;;;;;;5047955;28;20086;-95
2023/05/24 08:56:33;;;;;;;10.43;3.17;;;;;;;;;;5599009;22;20501;-94
2023/05/24 08:59:18;;;;;;;11.52;2.83;;;;;;;;;;5049497;28;20044;-94
2023/05/24 09:02:04;;;;;;;10.55;2.83;;;;;;;;;;5036591;28;20040;-94
2023/05/24 09:04:49;;;;;;;12.85;2.78;;;;;;;;;;5042211;28;20032;-94
2023/05/24 09:07:34;;;;;;;13.23;2.70;;;;;;;;;;5060245;22;20133;-94
2023/05/24 09:10:20;;;;;;;15.55;2.92;;;;;;;;;;5052263;28;20119;-92
2023/05/24 09:13:06;;;;;;;12.80;2.55;;;;;;;;;;5035639;28;20496;-93
2023/05/24 09:15:51;;;;;;;7.93;2.38;;;;;;;;;;5036565;28;20047;-92
2023/05/24 09:18:36;;;;;;;12.02;3.35;;;;;;;;;;5037141;28;20079;-93
2023/05/24 09:21:21;;;;;;;9.70;2.30;;;;;;;;;;5036974;28;20049;-92
2023/05/24 09:24:10;;;;;;;11.60;2.63;;;;;;;;;;5051287;28;20397;-91
2023/05/24 09:27:05;;;;;;;9.48;2.55;;;;;;;;;;5036430;28;20523;-93
2023/05/24 09:29:53;;;;;;;9.30;2.50;;;;;;;;;;5051128;28;20040;-93
2023/05/24 09:32:37;;;;;;;7.38;3.13;;;;;;;;;;5051316;28;20083;-93
2023/05/24 09:35:22;;;;;;;9.77;2.90;;;;;;;;;;5051450;28;20040;-94
2023/05/24 09:38:17;;;;;;;13.93;3.17;;;;;;;;;;5051241;28;20044;-92
2023/05/24 09:41:02;;;;;;;;;;;15.70;97.10;;;;;;5036298;28;20048;-92
2023/05/24 09:43:48;;;;;;;8.80;2.55;;;;;;;;;;5039872;28;19916;-91
2023/05/24 09:46:37;;;;;;;14.15;3.05;;;;;;;;;;5039878;28;20037;-93
2023/05/24 09:49:21;;;;;;;10.52;2.80;;;;;;;;;;5040133;28;20039;-92
2023/05/24 09:52:06;;;;;;;8.00;2.80;;;;;;;;;;5054655;28;20036;-93
2023/05/24 09:54:51;;;;;;;10.10;2.58;;;;;;;;;;5054865;28;20393;-94
2023/05/24 09:57:36;;;;;;;9.40;2.65;;;;;;;;;;5058555;28;20138;-92
2023/05/24 10:00:24;;;;;;;9.75;2.72;;;;;;;;;;5039690;28;20048;-92
2023/05/24 10:03:10;;;;;;;11.35;2.80;;;;;;;;;;5039384;28;20044;-93
2023/05/24 10:05:55;;;;;;;12.60;3.15;;;;;;;;;;5039456;28;20116;-94
2023/05/24 10:08:40;;;;;;;17.02;3.92;;;;;;;;;;5040578;28;20063;-93
2023/05/24 10:11:25;;;;;;;12.82;3.47;;;;;;;;;;5039596;28;20493;-94
2023/05/24 10:14:10;;;;;;;7.07;2.50;;;;;;;;;;5053959;28;20044;-93
2023/05/24 10:16:55;;;;;;;10.88;2.78;;;;;;;;;;5054611;28;20170;-93
2023/05/24 10:19:40;;;;;;;9.73;2.50;;;;;;;;;;5039209;28;20047;-92
2023/05/24 10:22:26;;;;;;;14.02;2.72;;;;;;;;;;5054612;28;20048;-93
2023/05/24 10:25:15;;;;;;;9.40;2.78;;;;;;;;;;5038745;28;20112;-93
2023/05/24 10:28:02;;;;;;;14.98;4.00;;;;;;;;;;5038731;28;20564;-90
2023/05/24 10:30:47;;;;;;;11.98;2.60;;;;;;;;;;5054279;28;20032;-93
2023/05/24 10:33:33;;;;;;;10.32;3.00;;;;;;;;;;5054162;28;20086;-96
2023/05/24 10:36:18;;;;;;;8.23;2.92;;;;;;;;;;5038749;28;20230;-92
2023/05/24 10:39:03;;;;;;;9.38;2.50;;;;;;;;;;5037589;28;20520;-93
2023/05/24 10:41:47;;;;;;;8.60;2.70;;;;;;;;;;5015166;28;20121;-93
2023/05/24 10:44:32;;;;;;;10.23;2.67;;;;;;;;;;4995968;28;20103;-94
2023/05/24 10:47:19;;;;;;;7.35;2.47;;;;;;;;;;5036419;28;20113;-95
2023/05/24 10:50:16;;;;;;;4.90;2.00;;;;;;;;;;5011245;28;20040;-91
2023/05/24 10:53:12;;;;;;;13.32;2.75;;;;;;;;;;5031766;28;20119;-92
2023/05/24 10:55:57;;;;;;;8.52;2.53;;;;;;;;;;5033634;28;20048;-92
2023/05/24 10:58:45;;;;;;;11.02;2.80;;;;;;;;;;5032530;28;20080;-93
2023/05/24 11:01:31;;;;;;;8.40;3.70;;;;;;;;;;5018689;28;20036;-92
2023/05/24 11:04:17;;;;;;;11.88;3.22;;;;;;;;;;5018262;28;20109;-92
2023/05/24 11:07:04;;;;;;;11.32;2.88;;;;;;;;;;5008884;28;20156;-91
2023/05/24 11:09:56;;;;;;;11.00;2.65;;;;;;;;;;5012850;28;20096;-92
2023/05/24 11:12:41;;;;;;;8.25;2.67;;;;;;;;;;5029940;28;20036;-91
2023/05/24 11:15:27;;;;;;;10.98;2.83;;;;;;;;;;5008573;28;20117;-92
2023/05/24 11:18:11;;;;;;;11.30;2.90;;;;;;;;;;5000138;28;20037;-93
2023/05/24 11:20:56;;;;;;;9.73;3.60;;;;;;;;;;5008130;28;20057;-91
2023/05/24 11:23:42;;;;;;;16.85;4.28;;;;;;;;;;5015866;28;20041;-91
2023/05/24 11:26:27;;;;;;;17.05;4.15;;;;;;;;;;5007575;28;20079;-91
2023/05/24 11:29:16;;;;;;;10.10;3.00;;;;;;;;;;5011586;28;20059;-93
2023/05/24 11:32:03;;;;;;;13.18;2.90;;;;;;;;;;5021096;28;20032;-91
2023/05/24 11:34:48;;;;;;;10.82;2.92;;;;;;;;;;5025917;28;20044;-93
2023/05/24 11:37:33;;;;;;;16.33;3.20;;;;;;;;;;5009472;28;20032;-93
2023/05/24 11:40:19;;;;;;;11.65;3.15;;;;;;;;;;5007141;28;20044;-92
2023/05/24 11:43:05;;;;;;;12.10;3.60;;;;;;;;;;5011482;28;20405;-91
2023/05/24 11:45:51;;;;;;;15.40;3.35;;;;;;;;;;4998165;28;20049;-93
2023/05/24 11:48:35;;;;;;;12.95;3.22;;;;;;;;;;5005861;28;20045;-92
2023/05/24 11:51:25;;;;;;;9.50;2.78;;;;;;;;;;5012328;28;20080;-91
2023/05/24 11:54:10;;;;;;;11.27;2.70;;;;;;;;;;5012423;28;20069;-91
2023/05/24 11:56:55;;;;;;;12.50;3.58;;;;;;;;;;4998251;28;20064;-92
2023/05/24 11:59:40;;;;;;;12.45;2.75;;;;;;;;;;5012593;28;20056;-93
2023/05/24 12:02:25;;;;;;;13.25;2.90;;;;;;;;;;5012178;28;20509;-92
2023/05/24 12:05:12;;;;;;;13.27;2.65;;;;;;;;;;4997134;28;20064;-91
2023/05/24 12:08:12;;;;;;;21.80;4.07;;;;;;;;;;5009024;28;20107;-91
2023/05/24 12:11:01;;;;;;;10.27;3.45;;;;;;;;;;5024766;28;20163;-91
2023/05/24 12:13:46;;;;;;;15.85;3.05;;;;;;;;;;5027988;28;20044;-90
2023/05/24 12:16:32;;;;;;;9.00;2.38;;;;;;;;;;5034685;28;20040;-92
2023/05/24 12:19:19;;;;;;;10.23;2.42;;;;;;;;;;5051383;28;20044;-93
2023/05/24 12:22:05;;;;;;;14.55;3.80;;;;;;;;;;5051969;28;20040;-91
2023/05/24 12:24:51;;;;;;;6.70;2.83;;;;;;;;;;5051749;28;20120;-93
2023/05/24 12:27:36;;;;;;;13.05;2.92;;;;;;;;;;5036343;28;20047;-91
2023/05/24 12:30:24;;;;;;;17.05;3.65;;;;;;;;;;5025242;28;20040;-90
2023/05/24 12:33:09;;;;;;;11.75;3.00;;;;;;;;;;5051657;28;20163;-92
2023/05/24 12:35:55;;;;;;;11.05;2.70;;;;;;;;;;5036750;28;20071;-91
2023/05/24 12:38:39;;;;;;;12.63;4.43;;;;;;;;;;5036245;28;20040;-91
2023/05/24 12:41:24;;;;;;;12.10;3.13;;;;;;;;;;5036080;28;20112;-92
2023/05/24 12:44:09;;;;;;;8.18;2.90;;;;;;;;;;5036548;28;20162;-92
2023/05/24 12:46:54;;;;;;;9.77;2.72;;;;;;;;;;5022656;28;20044;-90
2023/05/24 12:49:42;;;;;;;13.07;3.70;;;;;;;;;;5025990;28;20040;-91
2023/05/24 12:52:29;;;;;;;13.05;3.00;;;;;;;;;;5021821;28;20076;-90
2023/05/24 12:55:14;;;;;;;12.15;3.65;;;;;;;;;;5036419;28;20039;-92
2023/05/24 12:58:01;;;;;;;10.63;2.80;;;;;;;;;;5036311;28;20112;-91
2023/05/24 13:00:48;;;;;;;12.20;2.65;;;;;;;;;;5036213;28;20090;-91
2023/05/24 13:03:33;;;;;;;6.25;2.38;;;;;;;;;;5035949;28;20151;-92
2023/05/24 13:06:18;;;;;;;13.10;4.63;;;;;;;;;;5035579;28;20462;-90
2023/05/24 13:09:03;;;;;;;11.25;3.17;;;;;;;;;;5016924;28;20060;-91
2023/05/24 13:11:48;;;;;;;9.50;2.70;;;;;;;;;;5016457;28;20115;-92
2023/05/24 13:14:34;;;;;;;7.68;2.55;;;;;;;;;;5029725;28;20056;-91
2023/05/24 13:17:19;;;;;;;15.32;2.75;;;;;;;;;;5020065;28;20064;-91
2023/05/24 13:20:06;;;;;;;8.45;2.55;;;;;;;;;;5035347;28;20044;-92
2023/05/24 13:22:51;;;;;;;8.82;2.97;;;;;;;;;;5035325;28;20544;-92
2023/05/24 13:25:36;;;;;;;11.57;2.70;;;;;;;;;;5034819;28;20068;-91
2023/05/24 13:28:21;;;;;;;9.85;3.15;;;;;;;;;;5019990;28;20405;-91
2023/05/24 13:31:06;;;;;;;12.18;3.60;;;;;;;;;;5035350;28;20031;-92
2023/05/24 13:33:51;;;;;;;15.30;4.07;;;;;;;;;;5035131;28;20035;-92
2023/05/24 13:36:36;;;;;;;12.32;3.40;;;;;;;;;;5019445;28;20072;-91
2023/05/24 13:39:21;;;;;;;9.20;3.20;;;;;;;;;;5034785;28;20041;-90
2023/05/24 13:42:07;;;;;;;9.30;2.60;;;;;;;;;;5035202;28;20040;-91
2023/05/24 13:44:54;;;;;;;11.85;2.80;;;;;;;;;;5020804;28;20052;-92
2023/05/24 13:47:39;;;;;;;12.18;2.58;;;;;;;;;;5019502;28;20035;-93
2023/05/24 13:50:25;;;;;;;11.27;3.47;;;;;;;;;;5019595;28;20060;-92
2023/05/24 13:53:10;;;;;;;7.63;2.80;;;;;;;;;;5034862;28;20513;-91
2023/05/24 13:55:55;;;;;;;8.73;2.20;;;;;;;;;;5034744;28;21165;-91
2023/05/24 13:58:40;;;;;;;7.80;2.58;;;;;;;;;;5034250;28;20096;-93
2023/05/24 14:01:25;;;;;;;12.27;2.53;;;;;;;;;;5019379;28;20172;-90
2023/05/24 14:04:10;;;;;;;7.82;2.40;;;;;;;;;;5034446;28;20037;-93
2023/05/24 14:06:55;;;;;;;6.55;2.78;;;;;;;;;;5037494;28;20059;-91
2023/05/24 14:09:39;;;;;;;8.50;2.90;;;;;;;;;;5024760;28;20036;-92
2023/05/24 14:12:24;;;;;;;6.22;2.30;;;;;;;;;;5039123;28;20534;-90
2023/05/24 14:15:09;;;;;;;9.35;2.75;;;;;;;;;;5006833;28;20393;-92
2023/05/24 14:17:57;;;;;;;6.65;2.45;;;;;;;;;;5021133;28;20156;-91
2023/05/24 14:20:42;;;;;;;11.85;3.42;;;;;;;;;;5038803;28;20087;-92
2023/05/24 14:23:30;;;;;;;8.27;2.80;;;;;;;;;;5038979;28;20055;-91
2023/05/24 14:26:16;;;;;;;11.00;2.53;;;;;;;;;;5045361;28;20170;-92
2023/05/24 14:29:01;;;;;;;7.30;2.20;;;;;;;;;;5040805;28;20040;-91
2023/05/24 14:31:45;;;;;;;7.38;2.90;;;;;;;;;;5038832;28;20071;-91
2023/05/24 14:34:30;;;;;;;9.48;3.15;;;;;;;;;;5056988;28;20547;-91
2023/05/24 14:37:17;;;;;;;11.32;2.88;;;;;;;;;;5032955;28;20417;-92
2023/05/24 14:40:01;;;;;;;12.10;3.00;;;;;;;;;;5062383;28;20056;-93
2023/05/24 14:42:46;;;;;;;9.60;2.30;;;;;;;;;;5030840;28;20051;-92
2023/05/24 14:45:31;;;;;;;11.40;3.08;;;;;;;;;;5052310;28;20048;-92
2023/05/24 14:48:16;;;;;;;11.60;2.65;;;;;;;;;;5038621;28;20087;-91
2023/05/24 14:51:01;;;;;;;10.10;2.85;;;;;;;;;;5024585;28;20102;-91
2023/05/24 14:53:45;;;;;;;9.88;3.35;;;;;;;;;;5053174;28;20035;-92
2023/05/24 14:56:30;;;;;;;9.93;2.83;;;;;;;;;;5038280;28;20062;-90
2023/05/24 14:59:17;;;;;;;11.80;2.45;;;;;;;;;;5010778;28;20555;-92
2023/05/24 15:02:02;;;;;;;8.35;2.55;;;;;;;;;;5027546;28;20571;-94
2023/05/24 15:04:46;;;;;;;10.05;2.75;;;;;;;;;;5023509;28;20040;-93
2023/05/24 15:07:31;;;;;;;8.65;2.33;;;;;;;;;;5024001;28;20087;-91
2023/05/24 15:10:15;;;;;;;12.70;3.17;;;;;;;;;;5027480;28;20083;-94
2023/05/24 15:13:00;;;;;;;8.32;2.40;;;;;;;;;;5038123;28;20040;-91
2023/05/24 15:15:44;;;;;;;10.88;2.95;;;;;;;;;;5037812;28;20044;-89
2023/05/24 15:18:31;;;;;;;10.23;3.00;;;;;;;;;;5038388;28;20044;-91
2023/05/24 15:21:16;;;;;;;10.43;3.17;;;;;;;;;;5053320;28;20086;-92
2023/05/24 15:24:00;;;;;;;10.38;2.65;;;;;;;;;;5024105;28;20176;-90
2023/05/24 15:26:46;;;;;;;8.43;2.70;;;;;;;;;;5019194;28;20048;-89
2023/05/24 15:29:31;;;;;;;10.68;2.42;;;;;;;;;;5009354;28;20040;-90
2023/05/24 15:32:15;;;;;;;9.63;2.80;;;;;;;;;;5016948;28;20045;-92
2023/05/24 15:35:00;;;;;;;7.55;2.85;;;;;;;;;;5004611;28;20044;-91
2023/05/24 15:37:45;;;;;;;7.45;2.42;;;;;;;;;;5009622;28;20087;-95
2023/05/24 15:40:30;;;;;;;10.02;2.78;;;;;;;;;;5033203;28;20045;-93
2023/05/24 15:43:14;;;;;;;8.05;2.38;;;;;;;;;;5017853;28;20500;-92
2023/05/24 15:45:59;;;;;;;9.18;2.50;;;;;;;;;;5009215;28;20082;-93
2023/05/24 15:48:46;;;;;;;10.45;2.10;;;;;;;;;;5030526;28;20552;-91
2023/05/24 15:51:31;;;;;;;7.50;2.28;;;;;;;;;;5006425;28;20111;-91
2023/05/24 15:54:16;;;;;;;8.45;2.40;;;;;;;;;;5015907;28;20192;-90
2023/05/24 15:57:00;;;;;;;8.10;2.33;;;;;;;;;;5004223;28;20041;-90
2023/05/24 15:59:45;;;;;;;10.65;2.00;;;;;;;;;;5030011;28;20051;-90
2023/05/24 16:02:30;;;;;;;7.40;2.78;;;;;;;;;;5001959;28;20046;-89
2023/05/24 16:05:15;;;;;;;5.93;2.10;;;;;;;;;;5006497;28;20037;-90
2023/05/24 16:08:01;;;;;;;6.13;1.90;;;;;;;;;;5012233;28;20068;-92
2023/05/24 16:10:45;;;;;;;6.47;2.72;;;;;;;;;;5002763;28;20072;-91
2023/05/24 16:13:30;;;;;;;8.25;2.85;;;;;;;;;;5017034;28;20059;-90
2023/05/24 16:16:15;;;;;;;9.32;2.50;;;;;;;;;;4996553;28;20061;-94
2023/05/24 16:18:59;;;;;;;9.40;2.50;;;;;;;;;;5014900;28;20107;-92
2023/05/24 16:21:46;;;;;;;6.00;2.10;;;;;;;;;;5003138;28;20112;-92
2023/05/24 16:24:31;;;;;;;8.57;2.13;;;;;;;;;;4986620;28;20401;-91
2023/05/24 16:27:17;;;;;;;7.75;2.55;;;;;;;;;;4975936;28;20050;-93
2023/05/24 16:30:09;;;;;;;13.63;2.95;;;;;;;;;;4985720;28;20037;-94
2023/05/24 16:32:54;;;;;;;9.70;2.33;;;;;;;;;;5001945;28;20036;-93
2023/05/24 16:35:38;;;;;;;7.45;2.33;;;;;;;;;;4991511;28;20052;-91